sensor_id;sensor_type;location;lat;lon;timestamp;P1;durP1;ratioP1;P2;durP2;ratioP2
3853;SDS011;1942;48.770;8.934;2022-07-21T00:01:13;17.57;;;15.13;;
3853;SDS011;1942;48.770;8.934;2022-07-21T00:03:40;15.57;;;13.97;;
3853;SDS011;1942;48.770;8.934;2022-07-21T00:06:07;15.80;;;14.20;;
3853;SDS011;1942;48.770;8.934;2022-07-21T00:08:34;16.03;;;14.27;;
3853;SDS011;1942;48.770;8.934;2022-07-21T00:11:01;16.13;;;14.53;;
3853;SDS011;1942;48.770;8.934;2022-07-21T00:13:28;16.00;;;14.50;;
3853;SDS011;1942;48.770;8.934;2022-07-21T00:15:55;15.10;;;13.50;;
3853;SDS011;1942;48.770;8.934;2022-07-21T00:18:24;17.23;;;14.47;;
3853;SDS011;1942;48.770;8.934;2022-07-21T00:20:53;16.43;;;14.73;;
3853;SDS011;1942;48.770;8.934;2022-07-21T00:23:20;15.67;;;14.13;;
3853;SDS011;1942;48.770;8.934;2022-07-21T00:25:47;15.73;;;14.23;;
3853;SDS011;1942;48.770;8.934;2022-07-21T00:28:14;16.27;;;14.27;;
3853;SDS011;1942;48.770;8.934;2022-07-21T00:30:41;17.90;;;14.57;;
3853;SDS011;1942;48.770;8.934;2022-07-21T00:33:08;16.57;;;14.83;;
3853;SDS011;1942;48.770;8.934;2022-07-21T00:35:36;18.10;;;15.17;;
3853;SDS011;1942;48.770;8.934;2022-07-21T00:38:03;18.67;;;15.67;;
3853;SDS011;1942;48.770;8.934;2022-07-21T00:40:30;18.67;;;15.33;;
3853;SDS011;1942;48.770;8.934;2022-07-21T00:42:57;16.30;;;14.77;;
3853;SDS011;1942;48.770;8.934;2022-07-21T00:45:24;17.27;;;15.57;;
3853;SDS011;1942;48.770;8.934;2022-07-21T00:47:51;15.77;;;14.07;;
3853;SDS011;1942;48.770;8.934;2022-07-21T00:50:18;18.67;;;14.83;;
3853;SDS011;1942;48.770;8.934;2022-07-21T00:52:47;16.97;;;14.53;;
3853;SDS011;1942;48.770;8.934;2022-07-21T00:55:15;15.27;;;13.67;;
3853;SDS011;1942;48.770;8.934;2022-07-21T00:57:43;16.50;;;14.00;;
3853;SDS011;1942;48.770;8.934;2022-07-21T01:00:12;16.10;;;14.40;;
3853;SDS011;1942;48.770;8.934;2022-07-21T01:02:41;15.93;;;14.27;;
3853;SDS011;1942;48.770;8.934;2022-07-21T01:05:09;16.50;;;13.87;;
3853;SDS011;1942;48.770;8.934;2022-07-21T01:07:39;18.27;;;16.13;;
3853;SDS011;1942;48.770;8.934;2022-07-21T01:10:08;16.90;;;14.67;;
3853;SDS011;1942;48.770;8.934;2022-07-21T01:12:35;16.63;;;14.90;;
3853;SDS011;1942;48.770;8.934;2022-07-21T01:15:03;17.90;;;14.30;;
3853;SDS011;1942;48.770;8.934;2022-07-21T01:17:30;15.93;;;14.23;;
3853;SDS011;1942;48.770;8.934;2022-07-21T01:19:57;17.00;;;14.83;;
3853;SDS011;1942;48.770;8.934;2022-07-21T01:22:25;15.60;;;14.10;;
3853;SDS011;1942;48.770;8.934;2022-07-21T01:24:52;16.23;;;14.53;;
3853;SDS011;1942;48.770;8.934;2022-07-21T01:27:19;15.57;;;14.07;;
3853;SDS011;1942;48.770;8.934;2022-07-21T01:29:49;17.10;;;15.40;;
3853;SDS011;1942;48.770;8.934;2022-07-21T01:32:16;16.57;;;14.50;;
3853;SDS011;1942;48.770;8.934;2022-07-21T01:34:43;16.30;;;14.70;;
3853;SDS011;1942;48.770;8.934;2022-07-21T01:37:09;17.37;;;15.57;;
3853;SDS011;1942;48.770;8.934;2022-07-21T01:39:37;15.27;;;13.87;;
3853;SDS011;1942;48.770;8.934;2022-07-21T01:42:22;16.60;;;14.87;;
3853;SDS011;1942;48.770;8.934;2022-07-21T01:44:49;16.90;;;15.20;;
3853;SDS011;1942;48.770;8.934;2022-07-21T01:47:16;16.83;;;14.90;;
3853;SDS011;1942;48.770;8.934;2022-07-21T01:49:45;16.63;;;14.93;;
3853;SDS011;1942;48.770;8.934;2022-07-21T01:52:12;16.23;;;14.63;;
3853;SDS011;1942;48.770;8.934;2022-07-21T01:54:40;18.10;;;14.93;;
3853;SDS011;1942;48.770;8.934;2022-07-21T01:57:07;17.43;;;14.77;;
3853;SDS011;1942;48.770;8.934;2022-07-21T01:59:33;17.37;;;14.33;;
3853;SDS011;1942;48.770;8.934;2022-07-21T02:02:00;15.87;;;14.07;;
3853;SDS011;1942;48.770;8.934;2022-07-21T02:04:27;16.67;;;14.80;;
3853;SDS011;1942;48.770;8.934;2022-07-21T02:06:54;18.63;;;14.57;;
3853;SDS011;1942;48.770;8.934;2022-07-21T02:09:20;16.90;;;14.70;;
3853;SDS011;1942;48.770;8.934;2022-07-21T02:11:49;15.87;;;14.23;;
3853;SDS011;1942;48.770;8.934;2022-07-21T02:14:16;17.10;;;13.57;;
3853;SDS011;1942;48.770;8.934;2022-07-21T02:16:42;15.07;;;13.47;;
3853;SDS011;1942;48.770;8.934;2022-07-21T02:19:09;16.73;;;13.70;;
3853;SDS011;1942;48.770;8.934;2022-07-21T02:21:36;15.17;;;13.57;;
3853;SDS011;1942;48.770;8.934;2022-07-21T02:24:03;14.53;;;12.97;;
3853;SDS011;1942;48.770;8.934;2022-07-21T02:26:31;15.63;;;13.47;;
3853;SDS011;1942;48.770;8.934;2022-07-21T02:29:00;16.10;;;13.43;;
3853;SDS011;1942;48.770;8.934;2022-07-21T02:31:26;13.60;;;12.23;;
3853;SDS011;1942;48.770;8.934;2022-07-21T02:33:53;15.70;;;14.03;;
3853;SDS011;1942;48.770;8.934;2022-07-21T02:36:20;14.40;;;12.77;;
3853;SDS011;1942;48.770;8.934;2022-07-21T02:38:47;13.60;;;12.23;;
3853;SDS011;1942;48.770;8.934;2022-07-21T02:41:15;16.37;;;12.70;;
3853;SDS011;1942;48.770;8.934;2022-07-21T02:43:42;14.30;;;12.30;;
3853;SDS011;1942;48.770;8.934;2022-07-21T02:46:10;14.07;;;12.60;;
3853;SDS011;1942;48.770;8.934;2022-07-21T02:48:37;14.33;;;12.93;;
3853;SDS011;1942;48.770;8.934;2022-07-21T02:51:04;14.20;;;12.57;;
3853;SDS011;1942;48.770;8.934;2022-07-21T02:53:30;13.87;;;12.30;;
3853;SDS011;1942;48.770;8.934;2022-07-21T02:55:57;19.70;;;16.07;;
3853;SDS011;1942;48.770;8.934;2022-07-21T02:58:25;15.40;;;13.80;;
3853;SDS011;1942;48.770;8.934;2022-07-21T03:00:53;13.97;;;12.47;;
3853;SDS011;1942;48.770;8.934;2022-07-21T03:03:23;13.73;;;12.33;;
3853;SDS011;1942;48.770;8.934;2022-07-21T03:05:51;15.13;;;12.40;;
3853;SDS011;1942;48.770;8.934;2022-07-21T03:08:18;14.00;;;12.57;;
3853;SDS011;1942;48.770;8.934;2022-07-21T03:10:46;13.50;;;12.07;;
3853;SDS011;1942;48.770;8.934;2022-07-21T03:13:14;14.23;;;12.40;;
3853;SDS011;1942;48.770;8.934;2022-07-21T03:15:41;15.47;;;12.73;;
3853;SDS011;1942;48.770;8.934;2022-07-21T03:18:08;14.30;;;12.47;;
3853;SDS011;1942;48.770;8.934;2022-07-21T03:20:37;14.03;;;12.63;;
3853;SDS011;1942;48.770;8.934;2022-07-21T03:23:05;12.40;;;11.10;;
3853;SDS011;1942;48.770;8.934;2022-07-21T03:25:33;13.70;;;11.87;;
3853;SDS011;1942;48.770;8.934;2022-07-21T03:28:00;13.90;;;12.50;;
3853;SDS011;1942;48.770;8.934;2022-07-21T03:30:27;13.57;;;11.87;;
3853;SDS011;1942;48.770;8.934;2022-07-21T03:32:54;14.27;;;11.70;;
3853;SDS011;1942;48.770;8.934;2022-07-21T03:35:22;15.33;;;11.80;;
3853;SDS011;1942;48.770;8.934;2022-07-21T03:37:51;12.87;;;11.33;;
3853;SDS011;1942;48.770;8.934;2022-07-21T03:40:20;12.80;;;11.57;;
3853;SDS011;1942;48.770;8.934;2022-07-21T03:42:49;12.67;;;11.23;;
3853;SDS011;1942;48.770;8.934;2022-07-21T03:45:16;12.87;;;11.67;;
3853;SDS011;1942;48.770;8.934;2022-07-21T03:47:43;12.40;;;11.20;;
3853;SDS011;1942;48.770;8.934;2022-07-21T03:50:10;13.13;;;11.73;;
3853;SDS011;1942;48.770;8.934;2022-07-21T03:52:38;12.90;;;11.33;;
3853;SDS011;1942;48.770;8.934;2022-07-21T03:55:06;13.53;;;11.60;;
3853;SDS011;1942;48.770;8.934;2022-07-21T03:57:34;12.73;;;11.40;;
3853;SDS011;1942;48.770;8.934;2022-07-21T04:00:02;12.27;;;10.97;;
3853;SDS011;1942;48.770;8.934;2022-07-21T04:02:32;13.37;;;12.07;;
3853;SDS011;1942;48.770;8.934;2022-07-21T04:04:59;13.57;;;12.17;;
3853;SDS011;1942;48.770;8.934;2022-07-21T04:07:25;13.13;;;11.93;;
3853;SDS011;1942;48.770;8.934;2022-07-21T04:09:52;13.53;;;12.13;;
3853;SDS011;1942;48.770;8.934;2022-07-21T04:12:21;13.23;;;11.87;;
3853;SDS011;1942;48.770;8.934;2022-07-21T04:14:51;14.33;;;12.10;;
3853;SDS011;1942;48.770;8.934;2022-07-21T04:17:18;13.80;;;12.37;;
3853;SDS011;1942;48.770;8.934;2022-07-21T04:19:45;13.97;;;12.53;;
3853;SDS011;1942;48.770;8.934;2022-07-21T04:22:11;15.13;;;12.80;;
3853;SDS011;1942;48.770;8.934;2022-07-21T04:24:38;12.97;;;11.67;;
3853;SDS011;1942;48.770;8.934;2022-07-21T04:27:05;13.70;;;12.30;;
3853;SDS011;1942;48.770;8.934;2022-07-21T04:29:33;13.97;;;12.50;;
3853;SDS011;1942;48.770;8.934;2022-07-21T04:32:00;13.77;;;12.23;;
3853;SDS011;1942;48.770;8.934;2022-07-21T04:34:27;13.37;;;11.97;;
3853;SDS011;1942;48.770;8.934;2022-07-21T04:36:54;13.60;;;12.17;;
3853;SDS011;1942;48.770;8.934;2022-07-21T04:39:21;13.33;;;12.03;;
3853;SDS011;1942;48.770;8.934;2022-07-21T04:41:48;13.80;;;12.40;;
3853;SDS011;1942;48.770;8.934;2022-07-21T04:44:14;13.37;;;11.33;;
3853;SDS011;1942;48.770;8.934;2022-07-21T04:46:42;16.93;;;14.23;;
3853;SDS011;1942;48.770;8.934;2022-07-21T04:49:09;13.97;;;12.57;;
3853;SDS011;1942;48.770;8.934;2022-07-21T04:51:36;16.73;;;14.50;;
3853;SDS011;1942;48.770;8.934;2022-07-21T04:54:03;14.10;;;12.70;;
3853;SDS011;1942;48.770;8.934;2022-07-21T04:56:29;14.60;;;13.20;;
3853;SDS011;1942;48.770;8.934;2022-07-21T04:58:58;13.93;;;12.53;;
3853;SDS011;1942;48.770;8.934;2022-07-21T05:01:24;15.93;;;12.20;;
3853;SDS011;1942;48.770;8.934;2022-07-21T05:03:53;17.53;;;12.90;;
3853;SDS011;1942;48.770;8.934;2022-07-21T05:06:19;15.17;;;13.13;;
3853;SDS011;1942;48.770;8.934;2022-07-21T05:08:46;15.00;;;13.40;;
3853;SDS011;1942;48.770;8.934;2022-07-21T05:11:13;13.63;;;12.30;;
3853;SDS011;1942;48.770;8.934;2022-07-21T05:13:40;16.57;;;14.30;;
3853;SDS011;1942;48.770;8.934;2022-07-21T05:16:07;16.23;;;13.60;;
3853;SDS011;1942;48.770;8.934;2022-07-21T05:18:42;16.83;;;13.80;;
3853;SDS011;1942;48.770;8.934;2022-07-21T05:32:03;16.40;;;13.57;;
3853;SDS011;1942;48.770;8.934;2022-07-21T05:34:30;18.00;;;15.00;;
3853;SDS011;1942;48.770;8.934;2022-07-21T05:36:57;17.07;;;15.27;;
3853;SDS011;1942;48.770;8.934;2022-07-21T05:39:25;18.13;;;16.20;;
3853;SDS011;1942;48.770;8.934;2022-07-21T05:41:52;17.37;;;15.20;;
3853;SDS011;1942;48.770;8.934;2022-07-21T05:44:19;17.43;;;15.70;;
3853;SDS011;1942;48.770;8.934;2022-07-21T05:46:46;17.47;;;15.13;;
3853;SDS011;1942;48.770;8.934;2022-07-21T05:49:15;16.97;;;15.00;;
3853;SDS011;1942;48.770;8.934;2022-07-21T05:51:41;19.63;;;15.80;;
3853;SDS011;1942;48.770;8.934;2022-07-21T05:54:09;17.80;;;15.83;;
3853;SDS011;1942;48.770;8.934;2022-07-21T05:56:36;17.57;;;15.77;;
3853;SDS011;1942;48.770;8.934;2022-07-21T05:59:03;26.87;;;24.03;;
3853;SDS011;1942;48.770;8.934;2022-07-21T06:24:50;18.87;;;14.97;;
3853;SDS011;1942;48.770;8.934;2022-07-21T06:27:17;16.47;;;14.73;;
3853;SDS011;1942;48.770;8.934;2022-07-21T06:29:44;17.63;;;15.77;;
3853;SDS011;1942;48.770;8.934;2022-07-21T06:32:11;16.73;;;14.93;;
3853;SDS011;1942;48.770;8.934;2022-07-21T06:34:38;17.90;;;16.00;;
3853;SDS011;1942;48.770;8.934;2022-07-21T06:37:05;18.10;;;16.13;;
3853;SDS011;1942;48.770;8.934;2022-07-21T06:39:32;16.67;;;15.07;;
3853;SDS011;1942;48.770;8.934;2022-07-21T06:42:06;16.03;;;14.47;;
3853;SDS011;1942;48.770;8.934;2022-07-21T06:44:33;15.60;;;13.97;;
3853;SDS011;1942;48.770;8.934;2022-07-21T06:47:00;15.30;;;13.80;;
3853;SDS011;1942;48.770;8.934;2022-07-21T06:49:29;13.90;;;12.33;;
3853;SDS011;1942;48.770;8.934;2022-07-21T06:51:57;14.60;;;12.40;;
3853;SDS011;1942;48.770;8.934;2022-07-21T06:54:24;14.70;;;13.13;;
3853;SDS011;1942;48.770;8.934;2022-07-21T06:56:51;14.60;;;13.20;;
3853;SDS011;1942;48.770;8.934;2022-07-21T06:59:20;13.00;;;11.80;;
3853;SDS011;1942;48.770;8.934;2022-07-21T07:01:47;12.80;;;11.47;;
3853;SDS011;1942;48.770;8.934;2022-07-21T07:04:14;11.90;;;10.80;;
3853;SDS011;1942;48.770;8.934;2022-07-21T07:06:42;12.27;;;11.07;;
3853;SDS011;1942;48.770;8.934;2022-07-21T07:09:10;11.57;;;10.47;;
3853;SDS011;1942;48.770;8.934;2022-07-21T07:11:37;12.03;;;10.83;;
3853;SDS011;1942;48.770;8.934;2022-07-21T07:14:04;11.63;;;10.37;;
3853;SDS011;1942;48.770;8.934;2022-07-21T07:16:33;11.03;;;9.93;;
3853;SDS011;1942;48.770;8.934;2022-07-21T07:19:04;12.10;;;10.90;;
3853;SDS011;1942;48.770;8.934;2022-07-21T07:26:43;12.90;;;11.20;;
3853;SDS011;1942;48.770;8.934;2022-07-21T07:29:11;11.70;;;10.60;;
3853;SDS011;1942;48.770;8.934;2022-07-21T07:31:43;11.53;;;10.40;;
3853;SDS011;1942;48.770;8.934;2022-07-21T10:46:04;3.88;;;3.58;;
3853;SDS011;1942;48.770;8.934;2022-07-21T10:48:59;4.80;;;3.60;;
3853;SDS011;1942;48.770;8.934;2022-07-21T10:51:26;5.03;;;4.03;;
3853;SDS011;1942;48.770;8.934;2022-07-21T10:56:44;4.25;;;3.85;;
3853;SDS011;1942;48.770;8.934;2022-07-21T10:59:13;4.80;;;3.67;;
3853;SDS011;1942;48.770;8.934;2022-07-21T11:01:40;4.43;;;3.45;;
3853;SDS011;1942;48.770;8.934;2022-07-21T11:04:07;4.28;;;3.67;;
3853;SDS011;1942;48.770;8.934;2022-07-21T11:06:35;4.00;;;3.58;;
3853;SDS011;1942;48.770;8.934;2022-07-21T11:09:13;3.78;;;3.40;;
3853;SDS011;1942;48.770;8.934;2022-07-21T11:11:55;3.55;;;3.25;;
3853;SDS011;1942;48.770;8.934;2022-07-21T11:14:35;4.00;;;3.65;;
3853;SDS011;1942;48.770;8.934;2022-07-21T11:17:03;4.15;;;3.72;;
3853;SDS011;1942;48.770;8.934;2022-07-21T11:19:35;3.33;;;3.03;;
3853;SDS011;1942;48.770;8.934;2022-07-21T11:22:06;3.90;;;3.47;;
3853;SDS011;1942;48.770;8.934;2022-07-21T11:24:35;3.65;;;3.35;;
3853;SDS011;1942;48.770;8.934;2022-07-21T11:27:04;3.90;;;3.60;;
3853;SDS011;1942;48.770;8.934;2022-07-21T11:29:32;3.53;;;3.22;;
3853;SDS011;1942;48.770;8.934;2022-07-21T11:32:02;5.43;;;4.00;;
3853;SDS011;1942;48.770;8.934;2022-07-21T11:34:39;4.25;;;3.85;;
3853;SDS011;1942;48.770;8.934;2022-07-21T11:37:09;4.43;;;3.90;;
3853;SDS011;1942;48.770;8.934;2022-07-21T11:39:37;4.75;;;3.92;;
3853;SDS011;1942;48.770;8.934;2022-07-21T11:42:04;5.15;;;4.28;;
3853;SDS011;1942;48.770;8.934;2022-07-21T11:44:32;4.18;;;3.88;;
3853;SDS011;1942;48.770;8.934;2022-07-21T11:47:01;5.35;;;4.68;;
3853;SDS011;1942;48.770;8.934;2022-07-21T11:49:30;5.55;;;4.30;;
3853;SDS011;1942;48.770;8.934;2022-07-21T11:51:59;5.07;;;4.43;;
3853;SDS011;1942;48.770;8.934;2022-07-21T11:54:29;6.35;;;4.05;;
3853;SDS011;1942;48.770;8.934;2022-07-21T11:56:58;5.75;;;4.43;;
3853;SDS011;1942;48.770;8.934;2022-07-21T11:59:26;5.25;;;4.75;;
3853;SDS011;1942;48.770;8.934;2022-07-21T12:01:59;6.03;;;4.88;;
3853;SDS011;1942;48.770;8.934;2022-07-21T12:04:36;4.88;;;4.38;;
3853;SDS011;1942;48.770;8.934;2022-07-21T12:07:07;6.32;;;4.32;;
3853;SDS011;1942;48.770;8.934;2022-07-21T12:09:47;4.30;;;3.90;;
3853;SDS011;1942;48.770;8.934;2022-07-21T12:12:19;4.78;;;4.38;;
3853;SDS011;1942;48.770;8.934;2022-07-21T12:15:09;5.03;;;4.53;;
3853;SDS011;1942;48.770;8.934;2022-07-21T12:17:42;5.20;;;4.68;;
3853;SDS011;1942;48.770;8.934;2022-07-21T12:20:11;5.25;;;4.85;;
3853;SDS011;1942;48.770;8.934;2022-07-21T12:22:39;6.93;;;5.22;;
3853;SDS011;1942;48.770;8.934;2022-07-21T12:25:11;5.10;;;4.70;;
3853;SDS011;1942;48.770;8.934;2022-07-21T12:27:39;5.65;;;5.05;;
3853;SDS011;1942;48.770;8.934;2022-07-21T12:30:08;4.50;;;4.20;;
3853;SDS011;1942;48.770;8.934;2022-07-21T12:33:00;5.43;;;4.60;;
3853;SDS011;1942;48.770;8.934;2022-07-21T12:35:30;5.20;;;4.70;;
3853;SDS011;1942;48.770;8.934;2022-07-21T12:37:58;5.28;;;4.78;;
3853;SDS011;1942;48.770;8.934;2022-07-21T12:40:30;5.20;;;4.78;;
3853;SDS011;1942;48.770;8.934;2022-07-21T12:43:09;4.97;;;4.57;;
3853;SDS011;1942;48.770;8.934;2022-07-21T12:45:43;5.80;;;5.03;;
3853;SDS011;1942;48.770;8.934;2022-07-21T12:48:13;5.45;;;4.95;;
3853;SDS011;1942;48.770;8.934;2022-07-21T12:50:42;5.22;;;4.55;;
3853;SDS011;1942;48.770;8.934;2022-07-21T12:53:22;5.55;;;4.97;;
3853;SDS011;1942;48.770;8.934;2022-07-21T12:55:49;5.00;;;4.60;;
3853;SDS011;1942;48.770;8.934;2022-07-21T12:58:16;5.07;;;4.57;;
3853;SDS011;1942;48.770;8.934;2022-07-21T13:00:43;5.20;;;4.70;;
3853;SDS011;1942;48.770;8.934;2022-07-21T13:03:09;5.75;;;4.68;;
3853;SDS011;1942;48.770;8.934;2022-07-21T13:05:38;5.18;;;4.65;;
3853;SDS011;1942;48.770;8.934;2022-07-21T13:08:05;4.78;;;4.38;;
3853;SDS011;1942;48.770;8.934;2022-07-21T13:10:32;4.88;;;4.40;;
3853;SDS011;1942;48.770;8.934;2022-07-21T13:12:59;4.93;;;4.53;;
3853;SDS011;1942;48.770;8.934;2022-07-21T13:15:26;5.15;;;4.65;;
3853;SDS011;1942;48.770;8.934;2022-07-21T13:17:53;4.68;;;4.28;;
3853;SDS011;1942;48.770;8.934;2022-07-21T13:20:19;4.93;;;4.40;;
3853;SDS011;1942;48.770;8.934;2022-07-21T13:22:48;4.90;;;4.45;;
3853;SDS011;1942;48.770;8.934;2022-07-21T13:25:14;5.38;;;4.38;;
3853;SDS011;1942;48.770;8.934;2022-07-21T13:27:41;5.03;;;4.53;;
3853;SDS011;1942;48.770;8.934;2022-07-21T13:30:08;5.05;;;4.65;;
3853;SDS011;1942;48.770;8.934;2022-07-21T13:32:36;4.70;;;4.30;;
3853;SDS011;1942;48.770;8.934;2022-07-21T13:35:03;5.32;;;4.72;;
3853;SDS011;1942;48.770;8.934;2022-07-21T13:37:31;6.63;;;4.80;;
3853;SDS011;1942;48.770;8.934;2022-07-21T13:39:59;4.88;;;4.47;;
3853;SDS011;1942;48.770;8.934;2022-07-21T13:42:26;4.43;;;4.10;;
3853;SDS011;1942;48.770;8.934;2022-07-21T13:44:53;5.50;;;4.40;;
3853;SDS011;1942;48.770;8.934;2022-07-21T13:47:19;4.47;;;4.07;;
3853;SDS011;1942;48.770;8.934;2022-07-21T13:49:46;4.72;;;3.95;;
3853;SDS011;1942;48.770;8.934;2022-07-21T13:52:13;5.13;;;4.30;;
3853;SDS011;1942;48.770;8.934;2022-07-21T13:54:40;4.43;;;3.88;;
3853;SDS011;1942;48.770;8.934;2022-07-21T13:57:08;5.07;;;4.57;;
3853;SDS011;1942;48.770;8.934;2022-07-21T13:59:35;4.47;;;4.07;;
3853;SDS011;1942;48.770;8.934;2022-07-21T14:02:02;5.03;;;4.10;;
3853;SDS011;1942;48.770;8.934;2022-07-21T14:04:29;4.63;;;4.05;;
3853;SDS011;1942;48.770;8.934;2022-07-21T14:06:55;5.55;;;4.03;;
3853;SDS011;1942;48.770;8.934;2022-07-21T14:09:22;6.13;;;4.90;;
3853;SDS011;1942;48.770;8.934;2022-07-21T14:11:49;5.47;;;4.50;;
3853;SDS011;1942;48.770;8.934;2022-07-21T14:14:17;4.45;;;4.05;;
3853;SDS011;1942;48.770;8.934;2022-07-21T14:16:46;3.85;;;3.55;;
3853;SDS011;1942;48.770;8.934;2022-07-21T14:19:14;5.07;;;4.38;;
3853;SDS011;1942;48.770;8.934;2022-07-21T14:21:41;4.20;;;3.80;;
3853;SDS011;1942;48.770;8.934;2022-07-21T14:24:08;5.20;;;4.32;;
3853;SDS011;1942;48.770;8.934;2022-07-21T14:26:54;4.13;;;3.83;;
3853;SDS011;1942;48.770;8.934;2022-07-21T14:29:23;4.00;;;3.70;;
3853;SDS011;1942;48.770;8.934;2022-07-21T14:31:49;5.47;;;4.40;;
3853;SDS011;1942;48.770;8.934;2022-07-21T14:34:16;4.70;;;3.88;;
3853;SDS011;1942;48.770;8.934;2022-07-21T14:36:43;5.07;;;3.60;;
3853;SDS011;1942;48.770;8.934;2022-07-21T14:39:12;4.35;;;3.95;;
3853;SDS011;1942;48.770;8.934;2022-07-21T14:41:39;5.95;;;3.85;;
3853;SDS011;1942;48.770;8.934;2022-07-21T14:44:05;4.72;;;3.88;;
3853;SDS011;1942;48.770;8.934;2022-07-21T14:46:33;4.63;;;3.67;;
3853;SDS011;1942;48.770;8.934;2022-07-21T14:49:00;4.10;;;3.70;;
3853;SDS011;1942;48.770;8.934;2022-07-21T14:51:27;4.43;;;3.92;;
3853;SDS011;1942;48.770;8.934;2022-07-21T14:53:54;3.97;;;3.67;;
3853;SDS011;1942;48.770;8.934;2022-07-21T14:56:21;4.35;;;3.95;;
3853;SDS011;1942;48.770;8.934;2022-07-21T14:58:47;4.30;;;3.90;;
3853;SDS011;1942;48.770;8.934;2022-07-21T15:01:14;4.43;;;4.03;;
3853;SDS011;1942;48.770;8.934;2022-07-21T15:03:42;4.00;;;3.70;;
3853;SDS011;1942;48.770;8.934;2022-07-21T15:06:09;4.18;;;3.78;;
3853;SDS011;1942;48.770;8.934;2022-07-21T15:08:36;3.90;;;3.60;;
3853;SDS011;1942;48.770;8.934;2022-07-21T15:11:03;4.78;;;4.10;;
3853;SDS011;1942;48.770;8.934;2022-07-21T15:13:29;4.30;;;3.90;;
3853;SDS011;1942;48.770;8.934;2022-07-21T15:15:56;4.63;;;3.58;;
3853;SDS011;1942;48.770;8.934;2022-07-21T15:18:23;3.78;;;3.40;;
3853;SDS011;1942;48.770;8.934;2022-07-21T15:20:51;3.92;;;3.63;;
3853;SDS011;1942;48.770;8.934;2022-07-21T15:23:18;4.53;;;3.50;;
3853;SDS011;1942;48.770;8.934;2022-07-21T15:25:45;4.10;;;3.53;;
3853;SDS011;1942;48.770;8.934;2022-07-21T15:28:12;5.35;;;4.30;;
3853;SDS011;1942;48.770;8.934;2022-07-21T15:30:38;4.63;;;3.80;;
3853;SDS011;1942;48.770;8.934;2022-07-21T15:33:06;6.28;;;3.60;;
3853;SDS011;1942;48.770;8.934;2022-07-21T15:35:33;4.55;;;3.47;;
3853;SDS011;1942;48.770;8.934;2022-07-21T15:38:01;4.40;;;3.78;;
3853;SDS011;1942;48.770;8.934;2022-07-21T15:40:42;5.13;;;3.65;;
3853;SDS011;1942;48.770;8.934;2022-07-21T15:43:10;3.92;;;3.53;;
3853;SDS011;1942;48.770;8.934;2022-07-21T15:45:37;5.43;;;4.93;;
3853;SDS011;1942;48.770;8.934;2022-07-21T15:48:06;4.22;;;3.80;;
3853;SDS011;1942;48.770;8.934;2022-07-21T15:50:33;3.90;;;3.50;;
3853;SDS011;1942;48.770;8.934;2022-07-21T15:53:02;3.80;;;3.40;;
3853;SDS011;1942;48.770;8.934;2022-07-21T15:55:29;4.72;;;4.15;;
3853;SDS011;1942;48.770;8.934;2022-07-21T15:57:56;4.63;;;4.22;;
3853;SDS011;1942;48.770;8.934;2022-07-21T16:00:26;3.95;;;3.63;;
3853;SDS011;1942;48.770;8.934;2022-07-21T16:02:59;3.63;;;3.33;;
3853;SDS011;1942;48.770;8.934;2022-07-21T16:05:26;5.15;;;4.03;;
3853;SDS011;1942;48.770;8.934;2022-07-21T16:07:54;4.47;;;3.85;;
3853;SDS011;1942;48.770;8.934;2022-07-21T16:10:24;4.22;;;3.78;;
3853;SDS011;1942;48.770;8.934;2022-07-21T16:12:51;4.95;;;4.30;;
3853;SDS011;1942;48.770;8.934;2022-07-21T16:15:19;3.85;;;3.45;;
3853;SDS011;1942;48.770;8.934;2022-07-21T16:17:46;5.38;;;3.70;;
3853;SDS011;1942;48.770;8.934;2022-07-21T16:20:14;4.03;;;3.72;;
3853;SDS011;1942;48.770;8.934;2022-07-21T16:22:43;3.90;;;3.50;;
3853;SDS011;1942;48.770;8.934;2022-07-21T16:25:11;4.70;;;4.30;;
3853;SDS011;1942;48.770;8.934;2022-07-21T16:27:53;4.38;;;3.95;;
3853;SDS011;1942;48.770;8.934;2022-07-21T16:30:20;4.72;;;4.28;;
3853;SDS011;1942;48.770;8.934;2022-07-21T16:32:47;4.85;;;4.28;;
3853;SDS011;1942;48.770;8.934;2022-07-21T16:35:14;6.68;;;6.00;;
3853;SDS011;1942;48.770;8.934;2022-07-21T16:37:41;5.47;;;4.93;;
3853;SDS011;1942;48.770;8.934;2022-07-21T16:40:10;4.20;;;3.90;;
3853;SDS011;1942;48.770;8.934;2022-07-21T16:42:39;4.47;;;4.07;;
3853;SDS011;1942;48.770;8.934;2022-07-21T16:45:08;3.80;;;3.50;;
3853;SDS011;1942;48.770;8.934;2022-07-21T16:47:35;4.90;;;4.50;;
3853;SDS011;1942;48.770;8.934;2022-07-21T16:50:02;4.30;;;3.90;;
3853;SDS011;1942;48.770;8.934;2022-07-21T16:52:29;4.07;;;3.78;;
3853;SDS011;1942;48.770;8.934;2022-07-21T16:54:56;4.97;;;4.18;;
3853;SDS011;1942;48.770;8.934;2022-07-21T16:57:23;3.95;;;3.55;;
3853;SDS011;1942;48.770;8.934;2022-07-21T17:03:17;4.03;;;3.63;;
3853;SDS011;1942;48.770;8.934;2022-07-21T17:08:41;4.95;;;4.47;;
3853;SDS011;1942;48.770;8.934;2022-07-21T17:11:28;3.60;;;3.13;;
3853;SDS011;1942;48.770;8.934;2022-07-21T17:14:09;4.70;;;4.30;;
3853;SDS011;1942;48.770;8.934;2022-07-21T17:16:56;3.97;;;3.65;;
3853;SDS011;1942;48.770;8.934;2022-07-21T17:19:32;4.38;;;3.80;;
3853;SDS011;1942;48.770;8.934;2022-07-21T17:22:23;4.03;;;3.67;;
3853;SDS011;1942;48.770;8.934;2022-07-21T17:24:56;3.70;;;3.40;;
3853;SDS011;1942;48.770;8.934;2022-07-21T17:27:29;4.35;;;3.95;;
3853;SDS011;1942;48.770;8.934;2022-07-21T17:30:03;3.63;;;3.33;;
3853;SDS011;1942;48.770;8.934;2022-07-21T17:32:31;3.80;;;3.50;;
3853;SDS011;1942;48.770;8.934;2022-07-21T17:34:59;3.70;;;3.40;;
3853;SDS011;1942;48.770;8.934;2022-07-21T17:37:26;6.47;;;3.70;;
3853;SDS011;1942;48.770;8.934;2022-07-21T17:39:53;4.25;;;3.85;;
3853;SDS011;1942;48.770;8.934;2022-07-21T17:42:19;4.10;;;3.70;;
3853;SDS011;1942;48.770;8.934;2022-07-21T17:44:46;3.92;;;3.63;;
3853;SDS011;1942;48.770;8.934;2022-07-21T17:47:15;4.25;;;3.85;;
3853;SDS011;1942;48.770;8.934;2022-07-21T17:49:41;4.93;;;4.43;;
3853;SDS011;1942;48.770;8.934;2022-07-21T17:52:10;5.72;;;5.10;;
3853;SDS011;1942;48.770;8.934;2022-07-21T17:54:57;5.43;;;4.93;;
3853;SDS011;1942;48.770;8.934;2022-07-21T17:57:25;12.10;;;11.00;;
3853;SDS011;1942;48.770;8.934;2022-07-21T18:00:10;5.10;;;4.60;;
3853;SDS011;1942;48.770;8.934;2022-07-21T18:02:37;6.60;;;4.18;;
3853;SDS011;1942;48.770;8.934;2022-07-21T18:05:04;4.30;;;3.90;;
3853;SDS011;1942;48.770;8.934;2022-07-21T18:07:32;5.10;;;3.90;;
3853;SDS011;1942;48.770;8.934;2022-07-21T18:09:59;10.13;;;5.57;;
3853;SDS011;1942;48.770;8.934;2022-07-21T18:12:26;7.50;;;6.10;;
3853;SDS011;1942;48.770;8.934;2022-07-21T18:14:53;7.43;;;5.63;;
3853;SDS011;1942;48.770;8.934;2022-07-21T18:17:20;8.27;;;7.25;;
3853;SDS011;1942;48.770;8.934;2022-07-21T18:19:46;9.00;;;6.72;;
3853;SDS011;1942;48.770;8.934;2022-07-21T18:22:13;9.20;;;6.75;;
3853;SDS011;1942;48.770;8.934;2022-07-21T18:24:42;14.82;;;8.73;;
3853;SDS011;1942;48.770;8.934;2022-07-21T18:27:09;14.50;;;11.38;;
3853;SDS011;1942;48.770;8.934;2022-07-21T18:29:36;11.57;;;7.70;;
3853;SDS011;1942;48.770;8.934;2022-07-21T18:32:03;8.63;;;5.80;;
3853;SDS011;1942;48.770;8.934;2022-07-21T18:34:30;3.95;;;3.63;;
3853;SDS011;1942;48.770;8.934;2022-07-21T18:36:57;6.00;;;4.97;;
3853;SDS011;1942;48.770;8.934;2022-07-21T18:39:24;6.50;;;5.63;;
3853;SDS011;1942;48.770;8.934;2022-07-21T18:41:52;4.82;;;4.32;;
3853;SDS011;1942;48.770;8.934;2022-07-21T18:44:19;6.72;;;4.10;;
3853;SDS011;1942;48.770;8.934;2022-07-21T18:46:45;4.70;;;4.25;;
3853;SDS011;1942;48.770;8.934;2022-07-21T18:49:12;4.63;;;4.22;;
3853;SDS011;1942;48.770;8.934;2022-07-21T18:51:39;7.70;;;4.45;;
3853;SDS011;1942;48.770;8.934;2022-07-21T18:54:06;4.90;;;4.20;;
3853;SDS011;1942;48.770;8.934;2022-07-21T18:56:32;4.55;;;4.15;;
3853;SDS011;1942;48.770;8.934;2022-07-21T18:59:00;5.40;;;4.60;;
3853;SDS011;1942;48.770;8.934;2022-07-21T19:01:27;4.90;;;4.43;;
3853;SDS011;1942;48.770;8.934;2022-07-21T19:03:54;5.78;;;4.97;;
3853;SDS011;1942;48.770;8.934;2022-07-21T19:06:21;5.80;;;4.53;;
3853;SDS011;1942;48.770;8.934;2022-07-21T19:08:47;4.28;;;3.88;;
3853;SDS011;1942;48.770;8.934;2022-07-21T19:11:14;4.72;;;4.32;;